createdAt,value
2018-05-09T00:00:37.484Z,85.90
2018-05-09T00:03:05.789Z,86.80
2018-05-09T00:05:33.293Z,86.80
2018-05-09T00:08:00.822Z,88.00
2018-05-09T00:10:28.350Z,89.10
2018-05-09T00:12:55.920Z,88.80
2018-05-09T00:15:23.424Z,89.60
2018-05-09T00:17:50.994Z,89.90
2018-05-09T00:20:18.506Z,90.20
2018-05-09T00:22:46.028Z,90.50
2018-05-09T00:25:14.326Z,91.20
2018-05-09T00:27:42.545Z,91.20
2018-05-09T00:30:10.074Z,90.70
2018-05-09T00:32:37.585Z,91.10
2018-05-09T00:35:05.908Z,90.20
2018-05-09T00:37:33.429Z,90.10
2018-05-09T00:40:00.997Z,90.40
2018-05-09T00:42:29.282Z,91.10
2018-05-09T00:44:56.826Z,91.10
2018-05-09T00:47:25.139Z,91.00
2018-05-09T00:49:52.666Z,91.00
2018-05-09T00:52:20.206Z,91.60
2018-05-09T00:54:47.720Z,92.70
2018-05-09T00:57:15.264Z,93.20
2018-05-09T00:59:42.772Z,93.50
2018-05-09T01:02:10.323Z,93.90
2018-05-09T01:04:37.841Z,94.50
2018-05-09T01:07:05.410Z,94.00
2018-05-09T01:09:32.915Z,93.10
2018-05-09T01:12:00.436Z,93.00
2018-05-09T01:14:27.964Z,93.10
2018-05-09T01:16:55.504Z,92.90
2018-05-09T01:19:23.797Z,93.20
2018-05-09T01:21:52.090Z,93.40
2018-05-09T01:24:19.612Z,93.40
2018-05-09T01:26:47.901Z,92.70
2018-05-09T01:29:16.198Z,93.30
2018-05-09T01:31:43.712Z,93.30
2018-05-09T01:34:11.266Z,93.60
2018-05-09T01:36:38.786Z,92.40
2018-05-09T01:39:06.311Z,92.80
2018-05-09T01:41:34.601Z,93.10
2018-05-09T01:44:02.142Z,93.10
2018-05-09T01:46:30.460Z,93.00
2018-05-09T01:48:57.974Z,93.00
2018-05-09T01:51:26.274Z,93.10
2018-05-09T01:53:53.877Z,93.10
2018-05-09T01:56:21.429Z,92.90
2018-05-09T01:58:48.976Z,93.00
2018-05-09T02:01:16.482Z,92.80
2018-05-09T02:03:44.017Z,93.00
2018-05-09T02:06:11.637Z,93.20
2018-05-09T02:08:39.107Z,93.70
2018-05-09T02:11:06.612Z,93.80
2018-05-09T02:13:34.165Z,93.50
2018-05-09T02:16:01.696Z,94.30
2018-05-09T02:18:29.218Z,94.50
2018-05-09T02:20:57.497Z,95.20
2018-05-09T02:23:24.997Z,95.20
2018-05-09T02:25:53.307Z,95.50
2018-05-09T02:28:20.829Z,95.40
2018-05-09T02:30:48.343Z,95.10
2018-05-09T02:33:15.896Z,94.90
2018-05-09T02:35:44.181Z,95.60
2018-05-09T02:38:11.716Z,95.60
2018-05-09T02:40:39.245Z,95.50
2018-05-09T02:43:06.756Z,95.30
2018-05-09T02:45:34.274Z,95.10
2018-05-09T02:48:01.800Z,95.30
2018-05-09T02:50:29.329Z,94.40
2018-05-09T02:52:56.879Z,94.90
2018-05-09T02:55:25.148Z,96.50
2018-05-09T02:57:52.669Z,96.50
2018-05-09T03:00:20.209Z,96.00
2018-05-09T03:02:47.737Z,95.50
2018-05-09T03:05:16.019Z,96.10
2018-05-09T03:07:43.564Z,96.10
2018-05-09T03:10:11.843Z,95.50
2018-05-09T03:12:40.129Z,95.00
2018-05-09T03:15:07.691Z,95.00
2018-05-09T03:17:35.210Z,95.60
2018-05-09T03:20:02.769Z,96.60
2018-05-09T03:22:30.280Z,96.40
2018-05-09T03:24:57.836Z,96.20
2018-05-09T03:27:25.358Z,96.70
2018-05-09T03:29:53.787Z,96.50
2018-05-09T03:32:21.240Z,96.50
2018-05-09T03:34:48.751Z,96.60
2018-05-09T03:37:16.275Z,97.00
2018-05-09T03:39:43.775Z,96.20
2018-05-09T03:42:11.303Z,96.90
2018-05-09T03:44:38.846Z,97.40
2018-05-09T03:47:06.358Z,97.70
2018-05-09T03:49:34.639Z,97.30
2018-05-09T03:52:02.220Z,97.30
2018-05-09T03:54:29.720Z,97.50
2018-05-09T03:56:58.013Z,98.20
2018-05-09T03:59:25.605Z,98.20
2018-05-09T04:02:05.122Z,97.90
2018-05-09T04:04:44.555Z,98.00
2018-05-09T04:07:24.057Z,97.20
2018-05-09T04:09:55.451Z,98.00
2018-05-09T04:12:22.972Z,99.10
2018-05-09T04:14:50.487Z,99.50
2018-05-09T04:17:18.800Z,98.90
2018-05-09T04:19:46.304Z,98.90
2018-05-09T04:22:13.889Z,98.80
2018-05-09T04:24:41.378Z,99.20
2018-05-09T04:27:08.927Z,99.90
2018-05-09T04:29:36.441Z,99.60
2018-05-09T04:32:03.978Z,99.80
2018-05-09T04:34:31.479Z,99.40
2018-05-09T04:36:59.890Z,99.90
2018-05-09T04:39:27.396Z,99.90
2018-05-09T04:41:54.986Z,99.70
2018-05-09T04:44:22.461Z,99.60
2018-05-09T04:46:49.963Z,99.10
2018-05-09T04:49:17.547Z,99.50
2018-05-09T04:51:45.008Z,99.60
2018-05-09T04:54:12.516Z,99.00
2018-05-09T04:56:40.054Z,99.80
2018-05-09T04:59:07.573Z,99.90
2018-05-09T05:01:35.876Z,99.90
2018-05-09T05:04:03.396Z,99.90
2018-05-09T05:06:30.908Z,99.40
2018-05-09T05:08:58.445Z,99.90
2018-05-09T05:11:25.970Z,99.90
2018-05-09T05:13:53.475Z,99.20
2018-05-09T05:16:21.021Z,99.60
2018-05-09T05:18:48.536Z,99.90
2018-05-09T05:21:16.098Z,99.90
2018-05-09T05:23:43.648Z,99.90
2018-05-09T05:26:11.194Z,99.90
2018-05-09T05:28:38.720Z,99.90
2018-05-09T05:31:06.242Z,99.40
2018-05-09T05:33:34.552Z,99.40
2018-05-09T05:36:02.078Z,99.80
2018-05-09T05:38:30.383Z,99.10
2018-05-09T05:40:57.891Z,99.10
2018-05-09T05:43:25.410Z,97.70
2018-05-09T05:45:52.949Z,98.30
2018-05-09T05:48:21.246Z,98.00
2018-05-09T05:50:48.758Z,98.00
2018-05-09T05:53:16.305Z,96.30
2018-05-09T05:55:43.821Z,95.70
2018-05-09T05:58:11.343Z,95.50
2018-05-09T06:00:38.877Z,95.00
2018-05-09T06:03:06.381Z,94.40
2018-05-09T06:05:34.671Z,94.20
2018-05-09T06:08:02.289Z,94.20
2018-05-09T06:10:29.784Z,93.80
2018-05-09T06:12:57.318Z,93.90
2018-05-09T06:15:25.619Z,92.80
2018-05-09T06:17:53.132Z,92.80
2018-05-09T06:20:20.665Z,93.00
2018-05-09T06:22:48.200Z,92.70
2018-05-09T06:25:15.723Z,92.70
2018-05-09T06:27:43.426Z,92.40
2018-05-09T06:30:10.961Z,92.20
2018-05-09T06:32:38.498Z,93.70
2018-05-09T06:35:06.037Z,93.30
2018-05-09T06:37:33.558Z,92.70
2018-05-09T06:40:01.083Z,91.80
2018-05-09T06:42:29.392Z,92.50
2018-05-09T06:44:56.911Z,92.50
2018-05-09T06:47:24.456Z,91.70
2018-05-09T06:49:52.036Z,92.00
2018-05-09T06:52:19.507Z,91.70
2018-05-09T06:54:47.831Z,89.20
2018-05-09T06:57:15.336Z,89.20
2018-05-09T06:59:43.646Z,85.20
2018-05-09T07:02:11.182Z,85.20
2018-05-09T07:04:39.469Z,80.50
2018-05-09T07:07:07.772Z,75.10
2018-05-09T07:09:35.276Z,75.10
2018-05-09T07:12:02.806Z,75.40
2018-05-09T07:14:30.336Z,76.30
2018-05-09T07:16:57.899Z,75.50
2018-05-09T07:19:25.408Z,75.50
2018-05-09T07:21:52.958Z,74.60
2018-05-09T07:24:20.469Z,70.80
2018-05-09T07:26:48.022Z,72.90
2018-05-09T07:29:15.574Z,73.20
2018-05-09T07:31:43.854Z,71.50
2018-05-09T07:34:12.145Z,72.90
2018-05-09T07:36:39.682Z,72.90
2018-05-09T07:39:07.952Z,72.10
2018-05-09T07:41:36.212Z,72.20
2018-05-09T07:44:03.760Z,72.20
2018-05-09T07:46:31.281Z,74.90
2018-05-09T07:48:58.784Z,73.80
2018-05-09T07:51:26.310Z,75.20
2018-05-09T07:53:53.825Z,72.70
2018-05-09T07:56:22.110Z,71.20
2018-05-09T07:58:49.648Z,71.20
2018-05-09T08:01:17.166Z,70.40
2018-05-09T08:03:44.667Z,70.30
2018-05-09T08:06:12.990Z,71.80
2018-05-09T08:08:40.492Z,71.80
2018-05-09T08:11:08.005Z,71.70
2018-05-09T08:13:35.537Z,72.20
2018-05-09T08:16:03.862Z,70.20
2018-05-09T08:18:31.366Z,70.20
2018-05-09T08:20:59.658Z,70.20
2018-05-09T08:23:27.172Z,70.10
2018-05-09T08:25:54.723Z,70.00
2018-05-09T08:28:22.237Z,69.30
2018-05-09T08:30:49.775Z,70.00
2018-05-09T08:33:18.068Z,72.60
2018-05-09T08:35:45.676Z,71.90
2018-05-09T08:38:13.197Z,69.10
2018-05-09T08:40:40.721Z,68.20
2018-05-09T08:43:08.286Z,68.70
2018-05-09T08:45:35.764Z,70.30
2018-05-09T08:48:03.326Z,72.90
2018-05-09T08:50:30.834Z,71.60
2018-05-09T08:52:58.367Z,74.00
2018-05-09T08:55:25.989Z,68.60
2018-05-09T08:57:53.425Z,69.00
2018-05-09T09:00:20.943Z,66.90
2018-05-09T09:02:48.487Z,70.40
2018-05-09T09:05:15.991Z,67.40
2018-05-09T09:07:43.499Z,67.00
2018-05-09T09:10:11.028Z,64.30
2018-05-09T09:12:39.316Z,64.30
2018-05-09T09:15:07.577Z,65.90
2018-05-09T09:17:35.123Z,65.20
2018-05-09T09:20:02.626Z,65.00
2018-05-09T09:22:30.142Z,66.00
2018-05-09T09:24:57.659Z,66.50
2018-05-09T09:27:25.201Z,67.10
2018-05-09T09:29:52.719Z,67.30
2018-05-09T09:32:20.233Z,65.80
2018-05-09T09:34:47.748Z,64.50
2018-05-09T09:37:16.058Z,66.00
2018-05-09T09:39:43.575Z,65.90
2018-05-09T09:42:11.880Z,64.80
2018-05-09T09:44:40.152Z,64.40
2018-05-09T09:47:07.673Z,64.40
2018-05-09T09:49:35.201Z,63.30
2018-05-09T09:52:02.706Z,65.90
2018-05-09T09:54:30.232Z,66.20
2018-05-09T09:56:57.736Z,66.50
2018-05-09T09:59:26.036Z,61.20
2018-05-09T10:01:53.565Z,61.30
2018-05-09T10:04:21.855Z,62.00
2018-05-09T10:06:50.151Z,64.50
2018-05-09T10:09:17.657Z,64.50
2018-05-09T10:11:45.170Z,62.20
2018-05-09T10:14:12.705Z,62.40
2018-05-09T10:16:41.016Z,58.60
2018-05-09T10:19:08.544Z,58.60
2018-05-09T10:21:36.858Z,61.80
2018-05-09T10:24:04.387Z,61.70
2018-05-09T10:26:31.900Z,62.60
2018-05-09T10:28:59.420Z,64.20
2018-05-09T10:31:26.979Z,64.10
2018-05-09T10:33:54.493Z,60.10
2018-05-09T10:36:22.028Z,62.50
2018-05-09T10:38:49.571Z,60.30
2018-05-09T10:41:17.111Z,61.00
2018-05-09T10:43:44.623Z,60.60
2018-05-09T10:46:12.154Z,59.00
2018-05-09T10:48:39.688Z,56.80
2018-05-09T10:51:07.214Z,56.90
2018-05-09T10:53:35.499Z,56.50
2018-05-09T10:56:03.033Z,56.50
2018-05-09T10:58:30.554Z,53.50
2018-05-09T11:00:58.078Z,52.40
2018-05-09T11:03:26.373Z,56.10
2018-05-09T11:05:53.896Z,56.10
2018-05-09T11:08:21.433Z,57.80
2018-05-09T11:10:48.950Z,56.80
2018-05-09T11:13:16.455Z,56.80
2018-05-09T11:15:44.763Z,58.20
2018-05-09T11:18:12.285Z,58.10
2018-05-09T11:20:40.583Z,57.50
2018-05-09T11:23:08.127Z,57.60
2018-05-09T11:25:35.637Z,59.60
2018-05-09T11:28:03.181Z,59.20
2018-05-09T11:30:30.708Z,58.70
2018-05-09T11:32:58.274Z,56.00
2018-05-09T11:35:25.776Z,58.90
2018-05-09T11:37:53.319Z,54.00
2018-05-09T11:40:21.610Z,58.60
2018-05-09T11:42:49.111Z,58.50
2018-05-09T11:45:16.614Z,55.90
2018-05-09T11:47:44.164Z,56.80
2018-05-09T11:50:12.446Z,60.10
2018-05-09T11:52:40.741Z,60.50
2018-05-09T11:55:08.271Z,60.40
2018-05-09T11:57:36.538Z,64.90
2018-05-09T12:00:04.068Z,64.90
2018-05-09T12:02:31.575Z,67.80
2018-05-09T12:04:59.846Z,70.50
2018-05-09T12:07:28.148Z,73.10
2018-05-09T12:09:55.694Z,73.10
2018-05-09T12:12:23.214Z,73.80
2018-05-09T12:14:50.766Z,77.10
2018-05-09T12:17:18.283Z,81.10
2018-05-09T12:19:45.797Z,83.40
2018-05-09T12:22:13.320Z,82.50
2018-05-09T12:24:40.909Z,85.10
2018-05-09T12:27:09.146Z,83.70
2018-05-09T12:29:36.676Z,83.70
2018-05-09T12:32:04.970Z,82.90
2018-05-09T12:34:32.491Z,82.90
2018-05-09T12:37:00.769Z,87.60
2018-05-09T12:39:29.094Z,88.10
2018-05-09T12:41:56.611Z,88.00
2018-05-09T12:44:24.890Z,90.10
2018-05-09T12:46:53.187Z,88.10
2018-05-09T12:49:20.689Z,88.10
2018-05-09T12:51:48.232Z,86.70
2018-05-09T12:54:15.749Z,83.60
2018-05-09T12:56:44.059Z,79.70
2018-05-09T12:59:11.565Z,79.60
2018-05-09T13:01:39.083Z,78.20
2018-05-09T13:04:06.631Z,78.50
2018-05-09T13:06:34.188Z,77.70
2018-05-09T13:09:01.698Z,80.30
2018-05-09T13:11:29.236Z,81.90
2018-05-09T13:13:56.755Z,81.40
2018-05-09T13:16:24.286Z,82.30
2018-05-09T13:18:52.577Z,81.90
2018-05-09T13:21:20.857Z,81.20
2018-05-09T13:23:48.357Z,81.20
2018-05-09T13:26:15.892Z,79.80
2018-05-09T13:28:43.404Z,80.70
2018-05-09T13:31:10.938Z,80.40
2018-05-09T13:33:38.473Z,79.80
2018-05-09T13:36:06.015Z,78.00
2018-05-09T13:38:33.529Z,77.40
2018-05-09T13:41:01.100Z,77.20
2018-05-09T13:43:28.624Z,76.60
2018-05-09T13:45:56.150Z,76.30
2018-05-09T13:48:23.679Z,75.40
2018-05-09T13:50:51.190Z,77.30
2018-05-09T13:53:18.688Z,77.30
2018-05-09T13:55:46.239Z,75.20
2018-05-09T13:58:13.761Z,74.50
2018-05-09T14:00:41.290Z,71.10
2018-05-09T14:03:08.811Z,69.20
2018-05-09T14:05:36.320Z,68.60
2018-05-09T14:08:03.853Z,69.10
2018-05-09T14:10:31.374Z,68.10
2018-05-09T14:12:58.882Z,63.70
2018-05-09T14:15:27.234Z,62.40
2018-05-09T14:17:54.697Z,62.30
2018-05-09T14:20:22.220Z,58.40
2018-05-09T14:22:49.744Z,56.30
2018-05-09T14:25:17.365Z,60.30
2018-05-09T14:27:45.562Z,56.90
2018-05-09T14:30:13.844Z,58.30
2018-05-09T14:32:42.117Z,62.90
2018-05-09T14:35:10.380Z,62.00
2018-05-09T14:37:37.898Z,61.80
2018-05-09T14:40:05.410Z,64.50
2018-05-09T14:42:33.692Z,66.60
2018-05-09T14:45:01.964Z,65.20
2018-05-09T14:47:30.252Z,58.80
2018-05-09T14:49:57.793Z,58.80
2018-05-09T14:52:26.073Z,63.40
2018-05-09T14:54:54.377Z,57.80
2018-05-09T14:57:21.879Z,57.80
2018-05-09T14:59:49.384Z,57.70
2018-05-09T15:02:16.905Z,53.20
2018-05-09T15:04:44.440Z,55.90
2018-05-09T15:07:11.939Z,53.20
2018-05-09T15:09:40.245Z,59.90
2018-05-09T15:12:07.758Z,59.90
2018-05-09T15:14:35.293Z,57.80
2018-05-09T15:17:02.793Z,57.80
2018-05-09T15:19:31.147Z,56.90
2018-05-09T15:21:59.374Z,58.80
2018-05-09T15:24:26.883Z,58.70
2018-05-09T15:26:56.849Z,57.20
2018-05-09T15:29:24.769Z,57.00
2018-05-09T15:31:52.269Z,57.70
2018-05-09T15:34:19.862Z,56.30
2018-05-09T15:36:47.384Z,55.50
2018-05-09T15:39:14.881Z,55.90
2018-05-09T15:41:42.408Z,56.00
2018-05-09T15:44:09.921Z,56.70
2018-05-09T15:46:37.441Z,56.30
2018-05-09T15:49:05.006Z,56.90
2018-05-09T15:51:32.505Z,57.00
2018-05-09T15:54:00.780Z,57.90
2018-05-09T15:56:28.339Z,57.80
2018-05-09T15:58:55.848Z,60.00
2018-05-09T16:01:23.362Z,59.20
2018-05-09T16:03:50.882Z,58.10
2018-05-09T16:06:18.397Z,57.50
2018-05-09T16:08:46.694Z,57.80
2018-05-09T16:11:14.192Z,57.80
2018-05-09T16:13:41.694Z,57.70
2018-05-09T16:16:09.218Z,57.50
2018-05-09T16:18:37.699Z,56.70
2018-05-09T16:21:05.216Z,56.00
2018-05-09T16:23:33.359Z,55.50
2018-05-09T16:26:01.653Z,56.90
2018-05-09T16:28:29.160Z,56.90
2018-05-09T16:30:56.693Z,58.20
2018-05-09T16:33:24.205Z,59.40
2018-05-09T16:35:52.468Z,60.00
2018-05-09T16:38:19.988Z,60.00
2018-05-09T16:40:47.498Z,61.30
2018-05-09T16:43:15.760Z,61.30
2018-05-09T16:45:43.268Z,61.30
2018-05-09T16:48:10.798Z,61.80
2018-05-09T16:50:39.107Z,61.20
2018-05-09T16:53:06.628Z,61.20
2018-05-09T16:55:34.910Z,61.80
2018-05-09T16:58:03.192Z,62.00
2018-05-09T17:00:30.722Z,61.90
2018-05-09T17:02:58.236Z,61.10
2018-05-09T17:05:25.928Z,60.30
2018-05-09T17:07:53.475Z,60.90
2018-05-09T17:10:20.976Z,61.10
2018-05-09T17:12:49.250Z,61.50
2018-05-09T17:15:17.532Z,61.80
2018-05-09T17:17:45.826Z,62.70
2018-05-09T17:20:13.343Z,62.70
2018-05-09T17:22:40.859Z,63.20
2018-05-09T17:25:08.364Z,63.60
2018-05-09T17:27:36.661Z,64.60
2018-05-09T17:30:04.924Z,63.80
2018-05-09T17:32:32.463Z,63.70
2018-05-09T17:34:59.999Z,63.90
2018-05-09T17:37:27.500Z,65.70
2018-05-09T17:39:55.796Z,66.50
2018-05-09T17:42:23.295Z,66.40
2018-05-09T17:44:50.824Z,65.30
2018-05-09T17:47:18.324Z,65.00
2018-05-09T17:49:45.845Z,65.20
2018-05-09T17:52:13.361Z,65.60
2018-05-09T17:54:40.875Z,67.60
2018-05-09T17:57:08.401Z,66.00
2018-05-09T17:59:36.672Z,67.60
2018-05-09T18:02:04.973Z,68.90
2018-05-09T18:04:32.480Z,68.80
2018-05-09T18:07:00.966Z,69.00
2018-05-09T18:09:28.501Z,70.50
2018-05-09T18:11:56.018Z,69.60
2018-05-09T18:14:24.310Z,70.00
2018-05-09T18:16:51.816Z,69.90
2018-05-09T18:19:19.334Z,70.60
2018-05-09T18:21:46.893Z,70.40
2018-05-09T18:24:14.427Z,70.60
2018-05-09T18:26:42.782Z,72.60
2018-05-09T18:29:10.229Z,72.60
2018-05-09T18:31:37.771Z,72.50
2018-05-09T18:34:05.268Z,74.10
2018-05-09T18:36:33.561Z,76.00
2018-05-09T18:39:01.058Z,76.00
2018-05-09T18:41:28.570Z,74.70
2018-05-09T18:43:56.852Z,76.10
2018-05-09T18:46:24.466Z,76.10
2018-05-09T18:48:51.893Z,73.80
2018-05-09T18:51:19.413Z,75.00
2018-05-09T18:53:47.704Z,75.50
2018-05-09T18:56:15.241Z,75.50
2018-05-09T18:58:42.764Z,75.50
2018-05-09T19:01:11.112Z,76.20
2018-05-09T19:03:38.649Z,78.00
2018-05-09T19:06:06.939Z,78.60
2018-05-09T19:08:34.452Z,78.60
2018-05-09T19:11:01.975Z,79.80
2018-05-09T19:13:29.543Z,79.20
2018-05-09T19:15:57.090Z,79.00
2018-05-09T19:18:24.604Z,79.70
2018-05-09T19:20:52.137Z,81.10
2018-05-09T19:23:19.660Z,82.00
2018-05-09T19:25:47.181Z,82.60
2018-05-09T19:28:14.692Z,82.80
2018-05-09T19:30:42.237Z,83.50
2018-05-09T19:33:09.741Z,83.60
2018-05-09T19:35:37.260Z,83.20
2018-05-09T19:38:04.807Z,83.70
2018-05-09T19:40:33.170Z,83.70
2018-05-09T19:43:01.457Z,84.60
2018-05-09T19:45:28.999Z,84.60
2018-05-09T19:47:57.361Z,85.00
2018-05-09T19:50:24.849Z,85.10
2018-05-09T19:52:52.362Z,85.10
2018-05-09T19:55:19.892Z,85.10
2018-05-09T19:57:47.414Z,85.30
2018-05-09T20:00:15.698Z,85.20
2018-05-09T20:02:43.234Z,85.20
2018-05-09T20:05:11.516Z,85.60
2018-05-09T20:07:39.812Z,86.00
2018-05-09T20:10:07.345Z,86.00
2018-05-09T20:12:34.866Z,86.00
2018-05-09T20:15:02.409Z,86.80
2018-05-09T20:17:29.917Z,87.40
2018-05-09T20:19:57.451Z,88.00
2018-05-09T20:22:24.959Z,88.50
2018-05-09T20:24:53.263Z,87.90
2018-05-09T20:27:20.777Z,87.90
2018-05-09T20:29:49.086Z,89.10
2018-05-09T20:32:28.455Z,89.10
2018-05-09T20:34:55.987Z,88.40
2018-05-09T20:37:23.505Z,90.00
2018-05-09T20:39:51.014Z,89.30
2018-05-09T20:42:18.549Z,89.80
2018-05-09T20:44:46.064Z,90.50
2018-05-09T20:47:14.107Z,90.80
2018-05-09T20:49:41.638Z,90.80
2018-05-09T20:52:09.179Z,91.10
2018-05-09T20:54:37.473Z,91.50
2018-05-09T20:57:05.078Z,91.50
2018-05-09T20:59:32.616Z,91.70
2018-05-09T21:02:00.150Z,91.70
2018-05-09T21:04:28.447Z,92.00
2018-05-09T21:06:55.956Z,91.90
2018-05-09T21:09:24.274Z,92.10
2018-05-09T21:12:03.747Z,92.10
2018-05-09T21:14:31.340Z,92.60
2018-05-09T21:16:58.819Z,92.50
2018-05-09T21:19:26.320Z,93.20
2018-05-09T21:21:54.003Z,92.80
2018-05-09T21:24:22.329Z,92.70
2018-05-09T21:26:49.853Z,92.70
2018-05-09T21:29:18.115Z,93.80
2018-05-09T21:31:45.664Z,93.50
2018-05-09T21:34:13.178Z,94.10
2018-05-09T21:36:40.689Z,94.60
2018-05-09T21:39:08.223Z,94.30
2018-05-09T21:41:35.743Z,94.20
2018-05-09T21:44:03.274Z,94.70
2018-05-09T21:46:30.792Z,94.90
2018-05-09T21:48:58.329Z,95.30
2018-05-09T21:51:25.858Z,94.90
2018-05-09T21:53:54.173Z,94.70
2018-05-09T21:56:21.715Z,94.60
2018-05-09T21:58:49.217Z,94.90
2018-05-09T22:01:16.804Z,95.00
2018-05-09T22:03:44.289Z,94.50
2018-05-09T22:06:11.803Z,94.10
2018-05-09T22:08:39.356Z,94.80
2018-05-09T22:11:06.873Z,95.60
2018-05-09T22:13:34.398Z,94.70
2018-05-09T22:16:01.953Z,95.00
2018-05-09T22:18:29.472Z,95.10
2018-05-09T22:20:57.005Z,94.90
2018-05-09T22:23:24.542Z,95.00
2018-05-09T22:25:52.845Z,94.90
2018-05-09T22:28:20.379Z,94.90
2018-05-09T22:30:48.651Z,95.60
2018-05-09T22:33:16.168Z,95.60
2018-05-09T22:35:43.697Z,96.20
2018-05-09T22:38:11.226Z,96.60
2018-05-09T22:40:38.770Z,95.50
2018-05-09T22:43:06.339Z,95.20
2018-05-09T22:45:33.858Z,95.40
2018-05-09T22:48:01.367Z,95.60
2018-05-09T22:50:29.662Z,95.80
2018-05-09T22:52:57.182Z,95.70
2018-05-09T22:55:24.708Z,95.30
2018-05-09T22:57:52.204Z,96.20
2018-05-09T23:00:20.515Z,96.70
2018-05-09T23:02:48.049Z,97.10
2018-05-09T23:05:15.543Z,97.70
2018-05-09T23:07:43.178Z,98.00
2018-05-09T23:10:11.532Z,98.40
2018-05-09T23:12:39.725Z,98.60
2018-05-09T23:15:08.768Z,98.50
2018-05-09T23:17:36.279Z,98.50
2018-05-09T23:20:04.574Z,97.80
2018-05-09T23:22:32.080Z,97.80
2018-05-09T23:24:59.579Z,98.40
2018-05-09T23:27:27.858Z,98.00
2018-05-09T23:29:56.137Z,98.00
2018-05-09T23:32:24.431Z,97.70
2018-05-09T23:34:51.947Z,98.10
2018-05-09T23:37:19.484Z,98.60
2018-05-09T23:39:47.019Z,98.50
2018-05-09T23:42:14.554Z,98.80
2018-05-09T23:44:42.077Z,98.70
2018-05-09T23:47:09.611Z,98.50
2018-05-09T23:49:37.130Z,98.50
2018-05-09T23:52:04.733Z,98.20
2018-05-09T23:54:32.216Z,98.20
2018-05-09T23:56:59.758Z,98.20
2018-05-09T23:59:27.274Z,97.90
